BKP254 VTSP-VTSM
Flight info
| Callsign | BKP254 |
|---|---|
| Flight time | 1h 3m |
| Altitude | 13000 |
| Route | EMRIT1A EMRIT Y99 AKVUG Y93 DORNA |
| Aircraft | AT76/M-SDFGIRY/S |
Departure
| Time | 2026-04-29 01:26 |
|---|---|
| Airport | Phuket International Airport (VTSP) |
Arrival
| Time | 2026-04-29 02:30 |
|---|---|
| Airport | Samui International Airport (VTSM) |
| Time | Latitude | Longitude | Altitude | Speed | Heading |
|---|---|---|---|---|---|
| 2026-04-29 01:06 | 8.10981 | 98.30637 | 26 ft | 0 kts | 174° |
| 2026-04-29 01:19 | 8.10986 | 98.30636 | 24 ft | 3 kts | 175° |
| 2026-04-29 01:20 | 8.11013 | 98.30637 | 36 ft | 4 kts | 191° |
| 2026-04-29 01:20 | 8.11038 | 98.30645 | 24 ft | 4 kts | 211° |
| 2026-04-29 01:20 | 8.11058 | 98.30662 | 29 ft | 4 kts | 241° |
| 2026-04-29 01:20 | 8.11064 | 98.30679 | 25 ft | 0 kts | 264° |
| 2026-04-29 01:23 | 8.11063 | 98.30664 | 28 ft | 6 kts | 265° |
| 2026-04-29 01:23 | 8.11058 | 98.30601 | 24 ft | 11 kts | 265° |
| 2026-04-29 01:23 | 8.11050 | 98.30513 | 24 ft | 14 kts | 264° |
| 2026-04-29 01:24 | 8.11040 | 98.30423 | 23 ft | 12 kts | 264° |
| 2026-04-29 01:24 | 8.11055 | 98.30358 | 24 ft | 8 kts | 334° |
| 2026-04-29 01:24 | 8.11109 | 98.30349 | 25 ft | 8 kts | 356° |
| 2026-04-29 01:24 | 8.11166 | 98.30345 | 23 ft | 8 kts | 356° |
| 2026-04-29 01:25 | 8.11199 | 98.30369 | 26 ft | 6 kts | 76° |
| 2026-04-29 01:25 | 8.11203 | 98.30406 | 23 ft | 5 kts | 86° |
| 2026-04-29 01:25 | 8.11205 | 98.30428 | 25 ft | 14 kts | 85° |
| 2026-04-29 01:25 | 8.11233 | 98.30738 | 25 ft | 76 kts | 86° |
| 2026-04-29 01:26 | 8.11307 | 98.31468 | 88 ft | 126 kts | 82° |
| 2026-04-29 01:26 | 8.11415 | 98.32428 | 341 ft | 158 kts | 79° |
| 2026-04-29 01:26 | 8.11689 | 98.33655 | 369 ft | 195 kts | 81° |
| 2026-04-29 01:26 | 8.11573 | 98.35079 | 693 ft | 213 kts | 100° |
| 2026-04-29 01:27 | 8.11293 | 98.36589 | 973 ft | 225 kts | 99° |
| 2026-04-29 01:27 | 8.11114 | 98.38182 | 1280 ft | 231 kts | 93° |
| 2026-04-29 01:27 | 8.11065 | 98.39784 | 1593 ft | 225 kts | 90° |
| 2026-04-29 01:27 | 8.11077 | 98.41355 | 1857 ft | 225 kts | 89° |
| 2026-04-29 01:28 | 8.11099 | 98.42938 | 2171 ft | 226 kts | 89° |
| 2026-04-29 01:28 | 8.11103 | 98.44532 | 2449 ft | 228 kts | 90° |
| 2026-04-29 01:28 | 8.11086 | 98.46138 | 2764 ft | 230 kts | 91° |
| 2026-04-29 01:28 | 8.11065 | 98.47753 | 3080 ft | 231 kts | 91° |
| 2026-04-29 01:29 | 8.11043 | 98.49376 | 3399 ft | 232 kts | 91° |
| 2026-04-29 01:29 | 8.11022 | 98.51004 | 3711 ft | 232 kts | 90° |
| 2026-04-29 01:29 | 8.10999 | 98.52634 | 4031 ft | 232 kts | 90° |
| 2026-04-29 01:29 | 8.10976 | 98.54246 | 4358 ft | 233 kts | 90° |
| 2026-04-29 01:30 | 8.10955 | 98.55885 | 4658 ft | 234 kts | 91° |
| 2026-04-29 01:30 | 8.10935 | 98.57523 | 4960 ft | 233 kts | 90° |
| 2026-04-29 01:30 | 8.10913 | 98.59178 | 5275 ft | 232 kts | 90° |
| 2026-04-29 01:30 | 8.10891 | 98.60782 | 5596 ft | 232 kts | 90° |
| 2026-04-29 01:31 | 8.10867 | 98.62434 | 5905 ft | 232 kts | 90° |
| 2026-04-29 01:31 | 8.10847 | 98.64056 | 6226 ft | 232 kts | 91° |
| 2026-04-29 01:31 | 8.10827 | 98.65659 | 6533 ft | 231 kts | 91° |
| 2026-04-29 01:31 | 8.10804 | 98.67281 | 6835 ft | 231 kts | 90° |
| 2026-04-29 01:32 | 8.10781 | 98.68902 | 7138 ft | 231 kts | 90° |
| 2026-04-29 01:32 | 8.10759 | 98.70523 | 7447 ft | 231 kts | 90° |
| 2026-04-29 01:32 | 8.10737 | 98.72143 | 7759 ft | 231 kts | 91° |
| 2026-04-29 01:32 | 8.10715 | 98.73764 | 8071 ft | 231 kts | 91° |
| 2026-04-29 01:33 | 8.10694 | 98.75382 | 8384 ft | 231 kts | 90° |
| 2026-04-29 01:33 | 8.10669 | 98.76995 | 8702 ft | 227 kts | 90° |
| 2026-04-29 01:33 | 8.10650 | 98.78580 | 8927 ft | 225 kts | 90° |
| 2026-04-29 01:33 | 8.10630 | 98.80149 | 9154 ft | 223 kts | 90° |
| 2026-04-29 01:34 | 8.10619 | 98.81713 | 9378 ft | 223 kts | 90° |
| 2026-04-29 01:34 | 8.10612 | 98.83273 | 9604 ft | 222 kts | 90° |
| 2026-04-29 01:34 | 8.10609 | 98.84825 | 9829 ft | 221 kts | 90° |
| 2026-04-29 01:34 | 8.10615 | 98.86371 | 10036 ft | 220 kts | 89° |
| 2026-04-29 01:35 | 8.10629 | 98.87910 | 10245 ft | 219 kts | 89° |
| 2026-04-29 01:35 | 8.10644 | 98.89448 | 10454 ft | 219 kts | 89° |
| 2026-04-29 01:35 | 8.10657 | 98.90984 | 10665 ft | 219 kts | 89° |
| 2026-04-29 01:35 | 8.10671 | 98.92518 | 10872 ft | 218 kts | 89° |
| 2026-04-29 01:36 | 8.10686 | 98.94050 | 11089 ft | 218 kts | 89° |
| 2026-04-29 01:36 | 8.10700 | 98.95580 | 11303 ft | 218 kts | 89° |
| 2026-04-29 01:36 | 8.10722 | 98.97107 | 11515 ft | 217 kts | 86° |
| 2026-04-29 01:36 | 8.11256 | 98.98492 | 11735 ft | 214 kts | 52° |
| 2026-04-29 01:37 | 8.12270 | 98.99590 | 11951 ft | 214 kts | 46° |
| 2026-04-29 01:37 | 8.13341 | 99.00637 | 12167 ft | 214 kts | 45° |
| 2026-04-29 01:37 | 8.14417 | 99.01681 | 12388 ft | 214 kts | 45° |
| 2026-04-29 01:37 | 8.15473 | 99.02740 | 12612 ft | 214 kts | 47° |
| 2026-04-29 01:38 | 8.16510 | 99.03827 | 12820 ft | 215 kts | 48° |
| 2026-04-29 01:38 | 8.17553 | 99.04934 | 12917 ft | 221 kts | 48° |
| 2026-04-29 01:38 | 8.18627 | 99.06075 | 12960 ft | 227 kts | 48° |
| 2026-04-29 01:38 | 8.19730 | 99.07248 | 12980 ft | 233 kts | 48° |
| 2026-04-29 01:39 | 8.20859 | 99.08448 | 12990 ft | 238 kts | 48° |
| 2026-04-29 01:39 | 8.22010 | 99.09670 | 12995 ft | 242 kts | 48° |
| 2026-04-29 01:39 | 8.23176 | 99.10910 | 13001 ft | 245 kts | 48° |
| 2026-04-29 01:39 | 8.24356 | 99.12164 | 12999 ft | 247 kts | 47° |
| 2026-04-29 01:40 | 8.25545 | 99.13429 | 12999 ft | 249 kts | 47° |
| 2026-04-29 01:40 | 8.26744 | 99.14703 | 13001 ft | 251 kts | 47° |
| 2026-04-29 01:40 | 8.27947 | 99.15984 | 13003 ft | 252 kts | 47° |
| 2026-04-29 01:40 | 8.29156 | 99.17270 | 13006 ft | 253 kts | 48° |
| 2026-04-29 01:41 | 8.30352 | 99.18543 | 13005 ft | 254 kts | 47° |
| 2026-04-29 01:41 | 8.31585 | 99.19854 | 13005 ft | 254 kts | 47° |
| 2026-04-29 01:41 | 8.32786 | 99.21127 | 13007 ft | 254 kts | 47° |
| 2026-04-29 01:41 | 8.34009 | 99.22420 | 13009 ft | 255 kts | 47° |
| 2026-04-29 01:42 | 8.35224 | 99.23723 | 13007 ft | 255 kts | 48° |
| 2026-04-29 01:42 | 8.36441 | 99.25025 | 13015 ft | 255 kts | 47° |
| 2026-04-29 01:42 | 8.37662 | 99.26323 | 13015 ft | 255 kts | 47° |
| 2026-04-29 01:42 | 8.38881 | 99.27622 | 13011 ft | 255 kts | 47° |
| 2026-04-29 01:43 | 8.40102 | 99.28920 | 13012 ft | 255 kts | 47° |
| 2026-04-29 01:43 | 8.41325 | 99.30219 | 13014 ft | 256 kts | 48° |
| 2026-04-29 01:43 | 8.42550 | 99.31524 | 13015 ft | 256 kts | 47° |
| 2026-04-29 01:43 | 8.43778 | 99.32831 | 13014 ft | 256 kts | 47° |
| 2026-04-29 01:44 | 8.45164 | 99.33937 | 13015 ft | 257 kts | 25° |
| 2026-04-29 01:44 | 8.46899 | 99.34349 | 13015 ft | 258 kts | 8° |
| 2026-04-29 01:44 | 8.48691 | 99.34447 | 13015 ft | 258 kts | 3° |
| 2026-04-29 01:44 | 8.50487 | 99.34467 | 13011 ft | 259 kts | 2° |
| 2026-04-29 01:45 | 8.52289 | 99.34493 | 13014 ft | 259 kts | 3° |
| 2026-04-29 01:45 | 8.54094 | 99.34558 | 13014 ft | 260 kts | 5° |
| 2026-04-29 01:45 | 8.55902 | 99.34652 | 13013 ft | 261 kts | 5° |
| 2026-04-29 01:45 | 8.57713 | 99.34742 | 13014 ft | 261 kts | 5° |
| 2026-04-29 01:46 | 8.59527 | 99.34833 | 13013 ft | 261 kts | 5° |
| 2026-04-29 01:46 | 8.61341 | 99.34922 | 13011 ft | 261 kts | 5° |
| 2026-04-29 01:46 | 8.63154 | 99.35012 | 13014 ft | 261 kts | 4° |
| 2026-04-29 01:46 | 8.64967 | 99.35106 | 13015 ft | 261 kts | 4° |
| 2026-04-29 01:47 | 8.66781 | 99.35195 | 13011 ft | 261 kts | 4° |
| 2026-04-29 01:47 | 8.68592 | 99.35285 | 13016 ft | 260 kts | 4° |
| 2026-04-29 01:47 | 8.70399 | 99.35376 | 13029 ft | 261 kts | 5° |
| 2026-04-29 01:47 | 8.72211 | 99.35465 | 13017 ft | 261 kts | 4° |
| 2026-04-29 01:48 | 8.74024 | 99.35553 | 13019 ft | 261 kts | 4° |
| 2026-04-29 01:48 | 8.75836 | 99.35643 | 13022 ft | 261 kts | 5° |
| 2026-04-29 01:48 | 8.77624 | 99.35738 | 13024 ft | 261 kts | 5° |
| 2026-04-29 01:48 | 8.79438 | 99.35829 | 13019 ft | 261 kts | 4° |
| 2026-04-29 01:49 | 8.81249 | 99.35919 | 13018 ft | 261 kts | 4° |
| 2026-04-29 01:49 | 8.83060 | 99.36007 | 13028 ft | 260 kts | 5° |
| 2026-04-29 01:49 | 8.84872 | 99.36099 | 13031 ft | 261 kts | 4° |
| 2026-04-29 01:49 | 8.86686 | 99.36189 | 13033 ft | 261 kts | 5° |
| 2026-04-29 01:50 | 8.88503 | 99.36281 | 13029 ft | 262 kts | 4° |
| 2026-04-29 01:50 | 8.90321 | 99.36371 | 13026 ft | 262 kts | 5° |
| 2026-04-29 01:50 | 8.92136 | 99.36464 | 13022 ft | 262 kts | 4° |
| 2026-04-29 01:50 | 8.93955 | 99.36553 | 13021 ft | 262 kts | 4° |
| 2026-04-29 01:51 | 8.95772 | 99.36644 | 13018 ft | 261 kts | 5° |
| 2026-04-29 01:51 | 8.97588 | 99.36735 | 13026 ft | 261 kts | 5° |
| 2026-04-29 01:51 | 8.99405 | 99.36825 | 13024 ft | 261 kts | 5° |
| 2026-04-29 01:51 | 9.01221 | 99.36917 | 13027 ft | 261 kts | 4° |
| 2026-04-29 01:52 | 9.03038 | 99.37007 | 13021 ft | 261 kts | 4° |
| 2026-04-29 01:52 | 9.04853 | 99.37099 | 13027 ft | 260 kts | 6° |
| 2026-04-29 01:52 | 9.06529 | 99.37648 | 13037 ft | 254 kts | 34° |
| 2026-04-29 01:52 | 9.07898 | 99.38776 | 13036 ft | 254 kts | 45° |
| 2026-04-29 01:53 | 9.09096 | 99.40102 | 12963 ft | 258 kts | 50° |
| 2026-04-29 01:53 | 9.09864 | 99.41030 | 12852 ft | 262 kts | 51° |
| 2026-04-29 01:53 | 9.11041 | 99.42461 | 12703 ft | 267 kts | 51° |
| 2026-04-29 01:53 | 9.12258 | 99.43893 | 12550 ft | 270 kts | 50° |
| 2026-04-29 01:54 | 9.13514 | 99.45313 | 12406 ft | 272 kts | 49° |
| 2026-04-29 01:54 | 9.14784 | 99.46744 | 12219 ft | 274 kts | 49° |
| 2026-04-29 01:54 | 9.16062 | 99.48188 | 12060 ft | 276 kts | 49° |
| 2026-04-29 01:54 | 9.17342 | 99.49634 | 11883 ft | 276 kts | 49° |
| 2026-04-29 01:55 | 9.18624 | 99.51079 | 11722 ft | 276 kts | 49° |
| 2026-04-29 01:55 | 9.19904 | 99.52529 | 11556 ft | 276 kts | 49° |
| 2026-04-29 01:55 | 9.21186 | 99.53980 | 11389 ft | 277 kts | 49° |
| 2026-04-29 01:55 | 9.22464 | 99.55432 | 11223 ft | 277 kts | 49° |
| 2026-04-29 01:56 | 9.23754 | 99.56878 | 11053 ft | 277 kts | 49° |
| 2026-04-29 01:56 | 9.25040 | 99.58329 | 10877 ft | 277 kts | 49° |
| 2026-04-29 01:56 | 9.26329 | 99.59787 | 10672 ft | 278 kts | 49° |
| 2026-04-29 01:56 | 9.27621 | 99.61250 | 10409 ft | 277 kts | 49° |
| 2026-04-29 01:57 | 9.28895 | 99.62691 | 10113 ft | 273 kts | 49° |
| 2026-04-29 01:57 | 9.30153 | 99.64110 | 9810 ft | 269 kts | 49° |
| 2026-04-29 01:57 | 9.31394 | 99.65517 | 9482 ft | 267 kts | 49° |
| 2026-04-29 01:57 | 9.32628 | 99.66909 | 9157 ft | 265 kts | 49° |
| 2026-04-29 01:58 | 9.33837 | 99.68278 | 8801 ft | 264 kts | 49° |
| 2026-04-29 01:58 | 9.35060 | 99.69662 | 8405 ft | 264 kts | 49° |
| 2026-04-29 01:58 | 9.36282 | 99.71044 | 8017 ft | 263 kts | 49° |
| 2026-04-29 01:58 | 9.37499 | 99.72425 | 7641 ft | 262 kts | 49° |
| 2026-04-29 01:59 | 9.38711 | 99.73792 | 7300 ft | 260 kts | 49° |
| 2026-04-29 01:59 | 9.39909 | 99.75149 | 7002 ft | 257 kts | 49° |
| 2026-04-29 01:59 | 9.41092 | 99.76494 | 6696 ft | 254 kts | 49° |
| 2026-04-29 01:59 | 9.42460 | 99.77571 | 6391 ft | 250 kts | 25° |
| 2026-04-29 02:00 | 9.44083 | 99.78177 | 6075 ft | 249 kts | 20° |
| 2026-04-29 02:00 | 9.45728 | 99.78724 | 5758 ft | 249 kts | 19° |
| 2026-04-29 02:00 | 9.47368 | 99.79283 | 5445 ft | 249 kts | 20° |
| 2026-04-29 02:00 | 9.48988 | 99.79887 | 5133 ft | 249 kts | 22° |
| 2026-04-29 02:01 | 9.50600 | 99.80519 | 4853 ft | 247 kts | 22° |
| 2026-04-29 02:01 | 9.52192 | 99.81140 | 4669 ft | 243 kts | 22° |
| 2026-04-29 02:01 | 9.53757 | 99.81750 | 4465 ft | 240 kts | 22° |
| 2026-04-29 02:01 | 9.55306 | 99.82355 | 4277 ft | 238 kts | 22° |
| 2026-04-29 02:02 | 9.56843 | 99.82956 | 4087 ft | 236 kts | 22° |
| 2026-04-29 02:02 | 9.58361 | 99.83545 | 3944 ft | 232 kts | 22° |
| 2026-04-29 02:02 | 9.59864 | 99.84133 | 3802 ft | 231 kts | 22° |
| 2026-04-29 02:02 | 9.61357 | 99.84716 | 3663 ft | 229 kts | 22° |
| 2026-04-29 02:03 | 9.62842 | 99.85295 | 3516 ft | 228 kts | 22° |
| 2026-04-29 02:03 | 9.64321 | 99.85872 | 3376 ft | 227 kts | 22° |
| 2026-04-29 02:03 | 9.65795 | 99.86446 | 3224 ft | 226 kts | 22° |
| 2026-04-29 02:03 | 9.67261 | 99.87019 | 3095 ft | 223 kts | 22° |
| 2026-04-29 02:04 | 9.68458 | 99.87927 | 3011 ft | 217 kts | 57° |
| 2026-04-29 02:04 | 9.68999 | 99.89333 | 2922 ft | 215 kts | 76° |
| 2026-04-29 02:04 | 9.69241 | 99.90843 | 2847 ft | 214 kts | 85° |
| 2026-04-29 02:04 | 9.69288 | 99.92350 | 2782 ft | 214 kts | 90° |
| 2026-04-29 02:05 | 9.69258 | 99.93839 | 2721 ft | 214 kts | 91° |
| 2026-04-29 02:05 | 9.69216 | 99.95347 | 2648 ft | 214 kts | 91° |
| 2026-04-29 02:05 | 9.69178 | 99.96855 | 2577 ft | 214 kts | 91° |
| 2026-04-29 02:05 | 9.69165 | 99.98363 | 2490 ft | 214 kts | 90° |
| 2026-04-29 02:06 | 9.69129 | 99.99824 | 2390 ft | 200 kts | 98° |
| 2026-04-29 02:06 | 9.68499 | 100.01022 | 2293 ft | 192 kts | 133° |
| 2026-04-29 02:06 | 9.67514 | 100.01915 | 2192 ft | 188 kts | 141° |
| 2026-04-29 02:06 | 9.66478 | 100.02674 | 2065 ft | 180 kts | 144° |
| 2026-04-29 02:07 | 9.65463 | 100.03375 | 1919 ft | 174 kts | 145° |
| 2026-04-29 02:07 | 9.64476 | 100.04059 | 1756 ft | 171 kts | 145° |
| 2026-04-29 02:07 | 9.63509 | 100.04739 | 1583 ft | 166 kts | 145° |
| 2026-04-29 02:07 | 9.62603 | 100.05381 | 1481 ft | 151 kts | 144° |
| 2026-04-29 02:08 | 9.61700 | 100.05718 | 1438 ft | 130 kts | 179° |
| 2026-04-29 02:08 | 9.60874 | 100.05742 | 1421 ft | 110 kts | 177° |
| 2026-04-29 02:08 | 9.60153 | 100.05776 | 1404 ft | 98 kts | 176° |
| 2026-04-29 02:08 | 9.59491 | 100.05818 | 1344 ft | 95 kts | 175° |
| 2026-04-29 02:09 | 9.58778 | 100.05849 | 1065 ft | 110 kts | 179° |
| 2026-04-29 02:09 | 9.58006 | 100.05929 | 858 ft | 114 kts | 170° |
| 2026-04-29 02:09 | 9.57220 | 100.06029 | 676 ft | 113 kts | 175° |
| 2026-04-29 02:09 | 9.56427 | 100.06104 | 465 ft | 117 kts | 174° |
| 2026-04-29 02:10 | 9.55636 | 100.06176 | 308 ft | 114 kts | 173° |
| 2026-04-29 02:10 | 9.54837 | 100.06238 | 106 ft | 113 kts | 174° |
| 2026-04-29 02:10 | 9.54086 | 100.06289 | 147 ft | 108 kts | 179° |
| 2026-04-29 02:10 | 9.53275 | 100.06356 | 530 ft | 132 kts | 174° |
| 2026-04-29 02:11 | 9.52190 | 100.06547 | 582 ft | 183 kts | 162° |
| 2026-04-29 02:11 | 9.50870 | 100.06929 | 612 ft | 212 kts | 174° |
| 2026-04-29 02:11 | 9.49327 | 100.06937 | 632 ft | 231 kts | 182° |
| 2026-04-29 02:11 | 9.48198 | 100.06871 | 644 ft | 242 kts | 183° |
| 2026-04-29 02:12 | 9.47513 | 100.06824 | 649 ft | 247 kts | 184° |
| 2026-04-29 02:12 | 9.45770 | 100.06687 | 669 ft | 255 kts | 184° |
| 2026-04-29 02:12 | 9.43990 | 100.06536 | 706 ft | 256 kts | 184° |
| 2026-04-29 02:12 | 9.42253 | 100.06409 | 727 ft | 244 kts | 180° |
| 2026-04-29 02:13 | 9.40605 | 100.06692 | 736 ft | 239 kts | 161° |
| 2026-04-29 02:13 | 9.39161 | 100.07480 | 730 ft | 235 kts | 142° |
| 2026-04-29 02:13 | 9.38053 | 100.08665 | 755 ft | 226 kts | 125° |
| 2026-04-29 02:13 | 9.37199 | 100.09935 | 1000 ft | 214 kts | 117° |
| 2026-04-29 02:14 | 9.37020 | 100.11403 | 1080 ft | 216 kts | 77° |
| 2026-04-29 02:14 | 9.37820 | 100.12660 | 1160 ft | 218 kts | 38° |
| 2026-04-29 02:14 | 9.39238 | 100.13156 | 1200 ft | 221 kts | 0° |
| 2026-04-29 02:14 | 9.40725 | 100.12824 | 1208 ft | 219 kts | 343° |
| 2026-04-29 02:15 | 9.42159 | 100.12294 | 1226 ft | 220 kts | 329° |
| 2026-04-29 02:15 | 9.43124 | 100.11117 | 1249 ft | 222 kts | 290° |
| 2026-04-29 02:15 | 9.43165 | 100.09584 | 1276 ft | 222 kts | 252° |
| 2026-04-29 02:15 | 9.42290 | 100.08357 | 1300 ft | 221 kts | 214° |
| 2026-04-29 02:16 | 9.40843 | 100.07918 | 1327 ft | 221 kts | 177° |
| 2026-04-29 02:16 | 9.39458 | 100.08449 | 1350 ft | 221 kts | 140° |
| 2026-04-29 02:16 | 9.38659 | 100.09752 | 1377 ft | 222 kts | 103° |
| 2026-04-29 02:16 | 9.38816 | 100.11291 | 1384 ft | 225 kts | 66° |
| 2026-04-29 02:17 | 9.39886 | 100.12443 | 1395 ft | 227 kts | 28° |
| 2026-04-29 02:17 | 9.41399 | 100.12717 | 1398 ft | 227 kts | 352° |
| 2026-04-29 02:17 | 9.42925 | 100.12382 | 1401 ft | 225 kts | 347° |
| 2026-04-29 02:17 | 9.44264 | 100.11743 | 1398 ft | 225 kts | 317° |
| 2026-04-29 02:18 | 9.45000 | 100.10378 | 1401 ft | 226 kts | 279° |
| 2026-04-29 02:18 | 9.44801 | 100.08829 | 1402 ft | 222 kts | 249° |
| 2026-04-29 02:18 | 9.44248 | 100.07368 | 1399 ft | 224 kts | 247° |
| 2026-04-29 02:18 | 9.43649 | 100.05907 | 1403 ft | 225 kts | 246° |
| 2026-04-29 02:19 | 9.43023 | 100.04448 | 1402 ft | 227 kts | 245° |
| 2026-04-29 02:19 | 9.42382 | 100.02987 | 1402 ft | 228 kts | 245° |
| 2026-04-29 02:19 | 9.41729 | 100.01524 | 1399 ft | 228 kts | 245° |
| 2026-04-29 02:19 | 9.41182 | 100.00041 | 1390 ft | 224 kts | 262° |
| 2026-04-29 02:20 | 9.41484 | 99.98512 | 1394 ft | 226 kts | 300° |
| 2026-04-29 02:20 | 9.42641 | 99.97470 | 1399 ft | 227 kts | 336° |
| 2026-04-29 02:20 | 9.44185 | 99.97324 | 1407 ft | 226 kts | 12° |
| 2026-04-29 02:20 | 9.45705 | 99.97613 | 1404 ft | 221 kts | 4° |
| 2026-04-29 02:21 | 9.47251 | 99.97661 | 1404 ft | 224 kts | 1° |
| 2026-04-29 02:21 | 9.48794 | 99.97704 | 1567 ft | 211 kts | 1° |
| 2026-04-29 02:21 | 9.50236 | 99.97353 | 1781 ft | 224 kts | 335° |
| 2026-04-29 02:21 | 9.51495 | 99.96427 | 1853 ft | 237 kts | 318° |
| 2026-04-29 02:22 | 9.52796 | 99.95299 | 1670 ft | 253 kts | 325° |
| 2026-04-29 02:22 | 9.54360 | 99.94419 | 1524 ft | 260 kts | 335° |
| 2026-04-29 02:22 | 9.56023 | 99.93706 | 1456 ft | 255 kts | 333° |
| 2026-04-29 02:22 | 9.57510 | 99.92802 | 1427 ft | 245 kts | 327° |
| 2026-04-29 02:23 | 9.58908 | 99.91845 | 1409 ft | 240 kts | 325° |
| 2026-04-29 02:23 | 9.60257 | 99.90874 | 1410 ft | 236 kts | 324° |
| 2026-04-29 02:23 | 9.61606 | 99.89965 | 1401 ft | 229 kts | 336° |
| 2026-04-29 02:23 | 9.63162 | 99.89831 | 1400 ft | 227 kts | 14° |
| 2026-04-29 02:24 | 9.64461 | 99.90663 | 1404 ft | 222 kts | 52° |
| 2026-04-29 02:24 | 9.65178 | 99.92010 | 1402 ft | 214 kts | 66° |
| 2026-04-29 02:24 | 9.65756 | 99.93359 | 1400 ft | 202 kts | 68° |
| 2026-04-29 02:25 | 9.66832 | 99.95828 | 1398 ft | 183 kts | 65° |
| 2026-04-29 02:25 | 9.67371 | 99.96969 | 1398 ft | 176 kts | 64° |
| 2026-04-29 02:25 | 9.67907 | 99.98065 | 1400 ft | 171 kts | 64° |
| 2026-04-29 02:25 | 9.68426 | 99.99122 | 1411 ft | 166 kts | 64° |
| 2026-04-29 02:26 | 9.68713 | 100.00224 | 1400 ft | 164 kts | 98° |
| 2026-04-29 02:26 | 9.68143 | 100.01203 | 1407 ft | 164 kts | 133° |
| 2026-04-29 02:26 | 9.67303 | 100.02000 | 1412 ft | 167 kts | 140° |
| 2026-04-29 02:26 | 9.66378 | 100.02722 | 1406 ft | 169 kts | 144° |
| 2026-04-29 02:27 | 9.65418 | 100.03411 | 1406 ft | 170 kts | 145° |
| 2026-04-29 02:27 | 9.64445 | 100.04093 | 1405 ft | 171 kts | 146° |
| 2026-04-29 02:27 | 9.63460 | 100.04770 | 1407 ft | 171 kts | 146° |
| 2026-04-29 02:27 | 9.62482 | 100.05443 | 1399 ft | 165 kts | 147° |
| 2026-04-29 02:28 | 9.61446 | 100.05727 | 1390 ft | 148 kts | 177° |
| 2026-04-29 02:28 | 9.60478 | 100.05783 | 1396 ft | 132 kts | 176° |
| 2026-04-29 02:28 | 9.59627 | 100.05837 | 1368 ft | 116 kts | 174° |
| 2026-04-29 02:28 | 9.58792 | 100.05890 | 1057 ft | 123 kts | 176° |
| 2026-04-29 02:29 | 9.57948 | 100.05959 | 778 ft | 121 kts | 175° |
| 2026-04-29 02:29 | 9.57105 | 100.06021 | 482 ft | 123 kts | 172° |
| 2026-04-29 02:29 | 9.56246 | 100.06122 | 287 ft | 126 kts | 174° |
| 2026-04-29 02:29 | 9.55363 | 100.06198 | 90 ft | 126 kts | 173° |
| 2026-04-29 02:30 | 9.54543 | 100.06278 | 52 ft | 110 kts | 174° |
| 2026-04-29 02:30 | 9.54088 | 100.06331 | 48 ft | 24 kts | 172° |
| 2026-04-29 02:30 | 9.53929 | 100.06316 | 49 ft | 22 kts | 193° |
| 2026-04-29 02:30 | 9.53860 | 100.06333 | 49 ft | 3 kts | 69° |
| 2026-04-29 02:31 | 9.53867 | 100.06335 | 49 ft | 1 kts | 15° |
| 2026-04-29 02:31 | 9.53881 | 100.06334 | 47 ft | 4 kts | 358° |
| 2026-04-29 02:31 | 9.53912 | 100.06332 | 49 ft | 5 kts | 354° |
| 2026-04-29 02:31 | 9.53980 | 100.06325 | 49 ft | 19 kts | 355° |
| 2026-04-29 02:32 | 9.54143 | 100.06309 | 45 ft | 22 kts | 353° |
| 2026-04-29 02:32 | 9.54275 | 100.06297 | 47 ft | 16 kts | 355° |
| 2026-04-29 02:32 | 9.54378 | 100.06288 | 46 ft | 13 kts | 356° |
| 2026-04-29 02:32 | 9.54464 | 100.06280 | 49 ft | 12 kts | 353° |
| 2026-04-29 02:33 | 9.54572 | 100.06268 | 49 ft | 20 kts | 354° |
| 2026-04-29 02:33 | 9.54703 | 100.06255 | 44 ft | 17 kts | 354° |
| 2026-04-29 02:33 | 9.54807 | 100.06246 | 49 ft | 14 kts | 355° |
| 2026-04-29 02:33 | 9.54893 | 100.06237 | 46 ft | 12 kts | 353° |
| 2026-04-29 02:34 | 9.54984 | 100.06228 | 49 ft | 10 kts | 3° |
| 2026-04-29 02:34 | 9.55012 | 100.06277 | 49 ft | 8 kts | 81° |
| 2026-04-29 02:34 | 9.55045 | 100.06306 | 49 ft | 2 kts | 4° |
| 2026-04-29 02:34 | 9.55072 | 100.06308 | 49 ft | 5 kts | 3° |
| 2026-04-29 02:35 | 9.55103 | 100.06301 | 49 ft | 10 kts | 348° |
| 2026-04-29 02:35 | 9.55155 | 100.06298 | 49 ft | 5 kts | 21° |
| 2026-04-29 02:35 | 9.55161 | 100.06323 | 49 ft | 4 kts | 91° |
| 2026-04-29 02:35 | 9.55162 | 100.06333 | 49 ft | 0 kts | 86° |